Buoy 41936

sailwx.info

Track history (hours):
 
Tides and Currents Weather Stations Pressure Air Temp Water Temp Dewpoint Dewpoint Depression Visibility Wind Speed Wind Dir Waves Ship Positions

Drifting buoy 41936

Last reported at 2016-Feb-07 01:00 UTC. Time now 2016-Feb-14 23:12 UTC.
Position N 30°30' W 063°58'.

Barometer 1020.2 mb

Date/timePositionNaut miles runAvg speedWind from/ knotsBaromVisibWave heightAir tempDewpointWater temp
2016-Feb-07 01:00N 30°30' W 063°58'   1020.2
2016-Feb-04 08:00N 30°39' W 064°09'3 0.1 1023.4
2016-Feb-03 08:00N 30°37' W 064°11'2 0.2 1019.8
2016-Feb-02 22:00N 30°39' W 064°11'2 0.8 1018.5
2016-Feb-02 20:00N 30°41' W 064°11'1 0.6 1017.3
2016-Feb-02 18:00N 30°41' W 064°12'0 0.0 1016.9
2016-Feb-02 17:00N 30°41' W 064°12'2 1.1 1017.6
2016-Feb-02 15:00N 30°42' W 064°15'1 0.4 1018.7
2016-Feb-02 11:00N 30°41' W 064°16'0 0.3 1017.5
2016-Feb-02 10:00N 30°41' W 064°17'0 0.0 1016.7
2016-Feb-02 09:00N 30°41' W 064°17'2 0.2 1015.8
2016-Feb-02 02:00N 30°41' W 064°18'2 0.3 1018.4
2016-Feb-01 20:00N 30°42' W 064°19'3 0.6 1018.4
2016-Feb-01 15:00N 30°44' W 064°22'1 0.5 1022.1
2016-Feb-01 14:00N 30°44' W 064°22'1 0.9 1022.4
2016-Feb-01 13:00N 30°44' W 064°23'1 0.3 1022.5
2016-Feb-01 11:00N 30°43' W 064°24'0 0.4 1021.7
2016-Feb-01 10:00N 30°43' W 064°24'1 0.4 1021.4
2016-Feb-01 08:00N 30°43' W 064°25'0 0.1 1021.6
2016-Feb-01 07:00N 30°43' W 064°25'2 1.8 1022.0
2016-Feb-01 06:00N 30°42' W 064°27'0 0.1 1022.4
2016-Feb-01 02:00N 30°42' W 064°26'0 0.3 1023.8
2016-Feb-01 01:00N 30°42' W 064°27'0 0.1 1023.8
2016-Jan-31 23:00N 30°42' W 064°27'1 0.4 1023.8
2016-Jan-31 21:00N 30°42' W 064°28'1 0.8 1023.2
2016-Jan-31 20:00N 30°42' W 064°28'0 0.0 1022.9
2016-Jan-31 18:00N 30°42' W 064°28'2 0.7 1023.4
2016-Jan-31 15:00N 30°43' W 064°30'0 0.0 1025.1
2016-Jan-31 14:00N 30°43' W 064°30'0 0.4 1025.7
2016-Jan-31 13:00N 30°43' W 064°31'2 1.1 1024.4
2016-Jan-31 11:00N 30°43' W 064°33'6 1.5 1023.8
2016-Jan-31 07:00N 30°45' W 064°40'0 0.0 1023.0
2016-Jan-31 02:00N 30°45' W 064°40'1 0.6 1023.5
2016-Jan-31 01:00N 30°45' W 064°40'1 0.7 1022.9
2016-Jan-31 00:00N 30°46' W 064°40'1 0.8 1022.4
2016-Jan-30 23:00N 30°46' W 064°40'0 0.2 1021.9
2016-Jan-30 22:00N 30°47' W 064°40'2 1.2 1021.3
2016-Jan-30 20:00N 30°49' W 064°40'4 1.5 1019.4
2016-Jan-30 17:00N 30°53' W 064°43'6 0.8 1018.5
2016-Jan-30 09:00N 30°53' W 064°50'0 0.0 1011.6
2016-Jan-30 08:00N 30°53' W 064°50'3 0.4 1010.8
2016-Jan-30 00:00N 30°55' W 064°54'3 1.7 1007.1
2016-Jan-29 22:00N 30°56' W 064°57'1 1.1 1007.4
2016-Jan-29 21:00N 30°56' W 064°59'4 1.4 1006.8
2016-Jan-29 18:00N 30°56' W 065°03'0 0.0 1008.0
2016-Jan-29 17:00N 30°56' W 065°03'4 1.9 1007.1
2016-Jan-29 15:00N 30°54' W 065°07'5 5.2 1008.7
2016-Jan-29 14:00N 30°50' W 065°11'0 0.1 1008.8
2016-Jan-29 10:00N 30°49' W 065°11'4 1.4 1009.9
2016-Jan-29 07:00N 30°46' W 065°13'0 0.0 1011.5
2016-Jan-29 05:00N 30°46' W 065°13'2 0.8 1012.8
2016-Jan-29 02:00N 30°44' W 065°15'1 0.7 1015.2
2016-Jan-29 01:00N 30°44' W 065°16'3 0.8 1015.7
2016-Jan-28 22:00N 30°42' W 065°18'3 1.1 1016.0
2016-Jan-28 19:00N 30°40' W 065°21'2 2.2 1016.8
2016-Jan-28 18:00N 30°38' W 065°22'0 0.0 1017.2
2016-Jan-28 17:00N 30°38' W 065°22'2 1.5 1017.8
2016-Jan-28 16:00N 30°37' W 065°23'1 0.7 1019.0
2016-Jan-28 15:00N 30°36' W 065°23'1 1.0 1019.2
2016-Jan-28 14:00N 30°35' W 065°23'1 0.4 1020.2
2016-Jan-28 11:00N 30°34' W 065°23'1 0.6 1019.2
2016-Jan-28 09:00N 30°33' W 065°23'1 0.7 1018.8
2016-Jan-28 07:00N 30°31' W 065°23'2 1.9 1019.6
2016-Jan-28 06:00N 30°30' W 065°24'0 0.0 1020.3
2016-Jan-28 02:00N 30°30' W 065°24'1 1.1 1021.9
2016-Jan-28 01:00N 30°29' W 065°24'   1021.8
Track history (hours):
 
Tides and Currents Weather Stations Pressure Air Temp Water Temp Dewpoint Dewpoint Depression Visibility Wind Speed Wind Dir Waves Ship Positions

Drifting buoy 41936

Last reported at 2016-Feb-07 01:00 UTC. Time now 2016-Feb-14 23:12 UTC.
Position N 30°30' W 063°58'.

Barometer 1020.2 mb

Date/timePositionNaut miles runAvg speedWind from/ knotsBaromVisibWave heightAir tempDewpointWater temp
2016-Feb-07 01:00N 30°30' W 063°58'   1020.2
2016-Feb-04 08:00N 30°39' W 064°09'3 0.1 1023.4
2016-Feb-03 08:00N 30°37' W 064°11'2 0.2 1019.8
2016-Feb-02 22:00N 30°39' W 064°11'2 0.8 1018.5
2016-Feb-02 20:00N 30°41' W 064°11'1 0.6 1017.3
2016-Feb-02 18:00N 30°41' W 064°12'0 0.0 1016.9
2016-Feb-02 17:00N 30°41' W 064°12'2 1.1 1017.6
2016-Feb-02 15:00N 30°42' W 064°15'1 0.4 1018.7
2016-Feb-02 11:00N 30°41' W 064°16'0 0.3 1017.5
2016-Feb-02 10:00N 30°41' W 064°17'0 0.0 1016.7
2016-Feb-02 09:00N 30°41' W 064°17'2 0.2 1015.8
2016-Feb-02 02:00N 30°41' W 064°18'2 0.3 1018.4
2016-Feb-01 20:00N 30°42' W 064°19'3 0.6 1018.4
2016-Feb-01 15:00N 30°44' W 064°22'1 0.5 1022.1
2016-Feb-01 14:00N 30°44' W 064°22'1 0.9 1022.4
2016-Feb-01 13:00N 30°44' W 064°23'1 0.3 1022.5
2016-Feb-01 11:00N 30°43' W 064°24'0 0.4 1021.7
2016-Feb-01 10:00N 30°43' W 064°24'1 0.4 1021.4
2016-Feb-01 08:00N 30°43' W 064°25'0 0.1 1021.6
2016-Feb-01 07:00N 30°43' W 064°25'2 1.8 1022.0
2016-Feb-01 06:00N 30°42' W 064°27'0 0.1 1022.4
2016-Feb-01 02:00N 30°42' W 064°26'0 0.3 1023.8
2016-Feb-01 01:00N 30°42' W 064°27'0 0.1 1023.8
2016-Jan-31 23:00N 30°42' W 064°27'1 0.4 1023.8
2016-Jan-31 21:00N 30°42' W 064°28'1 0.8 1023.2
2016-Jan-31 20:00N 30°42' W 064°28'0 0.0 1022.9
2016-Jan-31 18:00N 30°42' W 064°28'2 0.7 1023.4
2016-Jan-31 15:00N 30°43' W 064°30'0 0.0 1025.1
2016-Jan-31 14:00N 30°43' W 064°30'0 0.4 1025.7
2016-Jan-31 13:00N 30°43' W 064°31'2 1.1 1024.4
2016-Jan-31 11:00N 30°43' W 064°33'6 1.5 1023.8
2016-Jan-31 07:00N 30°45' W 064°40'0 0.0 1023.0
2016-Jan-31 02:00N 30°45' W 064°40'1 0.6 1023.5
2016-Jan-31 01:00N 30°45' W 064°40'1 0.7 1022.9
2016-Jan-31 00:00N 30°46' W 064°40'1 0.8 1022.4
2016-Jan-30 23:00N 30°46' W 064°40'0 0.2 1021.9
2016-Jan-30 22:00N 30°47' W 064°40'2 1.2 1021.3
2016-Jan-30 20:00N 30°49' W 064°40'4 1.5 1019.4
2016-Jan-30 17:00N 30°53' W 064°43'6 0.8 1018.5
2016-Jan-30 09:00N 30°53' W 064°50'0 0.0 1011.6
2016-Jan-30 08:00N 30°53' W 064°50'3 0.4 1010.8
2016-Jan-30 00:00N 30°55' W 064°54'3 1.7 1007.1
2016-Jan-29 22:00N 30°56' W 064°57'1 1.1 1007.4
2016-Jan-29 21:00N 30°56' W 064°59'4 1.4 1006.8
2016-Jan-29 18:00N 30°56' W 065°03'0 0.0 1008.0
2016-Jan-29 17:00N 30°56' W 065°03'4 1.9 1007.1
2016-Jan-29 15:00N 30°54' W 065°07'5 5.2 1008.7
2016-Jan-29 14:00N 30°50' W 065°11'0 0.1 1008.8
2016-Jan-29 10:00N 30°49' W 065°11'4 1.4 1009.9
2016-Jan-29 07:00N 30°46' W 065°13'0 0.0 1011.5
2016-Jan-29 05:00N 30°46' W 065°13'2 0.8 1012.8
2016-Jan-29 02:00N 30°44' W 065°15'1 0.7 1015.2
2016-Jan-29 01:00N 30°44' W 065°16'3 0.8 1015.7
2016-Jan-28 22:00N 30°42' W 065°18'3 1.1 1016.0
2016-Jan-28 19:00N 30°40' W 065°21'2 2.2 1016.8
2016-Jan-28 18:00N 30°38' W 065°22'0 0.0 1017.2
2016-Jan-28 17:00N 30°38' W 065°22'2 1.5 1017.8
2016-Jan-28 16:00N 30°37' W 065°23'1 0.7 1019.0
2016-Jan-28 15:00N 30°36' W 065°23'1 1.0 1019.2
2016-Jan-28 14:00N 30°35' W 065°23'1 0.4 1020.2
2016-Jan-28 11:00N 30°34' W 065°23'1 0.6 1019.2
2016-Jan-28 09:00N 30°33' W 065°23'1 0.7 1018.8
2016-Jan-28 07:00N 30°31' W 065°23'2 1.9 1019.6
2016-Jan-28 06:00N 30°30' W 065°24'0 0.0 1020.3
2016-Jan-28 02:00N 30°30' W 065°24'1 1.1 1021.9
2016-Jan-28 01:00N 30°29' W 065°24'   1021.8

Dump ship's entire track history